Terminal Aerodrome Forecast
Issued by NWS

Home | Current Version | Previous Version | Text Only | Print | Product List | Glossary On
Versions: 1 2 3 4 5 6 7 8 9 10 11 12 13
000
FTUS45 KRIW 240537
TAFRKS
TAF
KRKS 240537Z 2406/2506 02011KT 2SM -SN SCT015 OVC025
     FM241800 28015KT P6SM VCSH BKN025
     FM242200 27018KT P6SM SCT025 BKN060
     FM250300 25014KT P6SM SCT090=

USA.gov is the U.S. government's official web portal to all federal, state and local government web resources and services.